createdAt,value
2018-02-01T00:02:07.752Z,91.60
2018-02-01T00:04:35.373Z,91.70
2018-02-01T00:07:03.710Z,91.70
2018-02-01T00:09:31.321Z,91.70
2018-02-01T00:11:59.648Z,91.80
2018-02-01T00:14:27.241Z,91.80
2018-02-01T00:16:54.848Z,91.90
2018-02-01T00:19:22.449Z,91.90
2018-02-01T00:21:50.009Z,92.10
2018-02-01T00:24:17.639Z,92.10
2018-02-01T00:26:45.202Z,92.20
2018-02-01T00:29:12.756Z,92.30
2018-02-01T00:31:40.345Z,92.60
2018-02-01T00:34:07.980Z,92.30
2018-02-01T00:36:35.553Z,92.10
2018-02-01T00:39:03.138Z,92.20
2018-02-01T00:41:30.739Z,92.00
2018-02-01T00:43:59.062Z,91.30
2018-02-01T00:46:26.614Z,91.30
2018-02-01T00:48:54.965Z,91.50
2018-02-01T00:51:22.587Z,91.50
2018-02-01T00:53:50.138Z,91.00
2018-02-01T00:56:17.694Z,91.20
2018-02-01T00:58:45.275Z,91.30
2018-02-01T01:01:15.086Z,91.30
2018-02-01T01:03:42.728Z,90.60
2018-02-01T01:06:10.317Z,90.60
2018-02-01T01:08:37.865Z,90.40
2018-02-01T01:11:05.474Z,90.60
2018-02-01T01:13:33.084Z,90.40
2018-02-01T01:16:00.644Z,90.50
2018-02-01T01:18:28.304Z,90.40
2018-02-01T01:20:55.925Z,90.50
2018-02-01T01:23:23.483Z,90.50
2018-02-01T01:25:51.063Z,90.50
2018-02-01T01:28:18.674Z,90.90
2018-02-01T01:30:47.036Z,90.80
2018-02-01T01:33:14.668Z,90.80
2018-02-01T01:35:42.213Z,90.80
2018-02-01T01:38:09.806Z,90.70
2018-02-01T01:40:37.374Z,90.80
2018-02-01T01:43:04.936Z,90.80
2018-02-01T01:45:32.565Z,90.60
2018-02-01T01:48:00.131Z,90.90
2018-02-01T01:50:27.714Z,90.60
2018-02-01T01:52:55.312Z,90.30
2018-02-01T01:55:23.638Z,90.40
2018-02-01T01:57:51.228Z,90.40
2018-02-01T02:00:18.773Z,90.70
2018-02-01T02:02:46.417Z,90.90
2018-02-01T02:05:13.999Z,91.00
2018-02-01T02:07:41.543Z,90.90
2018-02-01T02:10:09.137Z,90.60
2018-02-01T02:12:38.800Z,90.80
2018-02-01T02:15:13.064Z,90.80
2018-02-01T02:17:41.906Z,90.70
2018-02-01T02:20:11.927Z,90.60
2018-02-01T02:22:41.439Z,90.60
2018-02-01T02:25:10.816Z,90.60
2018-02-01T02:27:41.334Z,90.90
2018-02-01T02:30:11.774Z,91.00
2018-02-01T02:32:41.681Z,91.00
2018-02-01T02:35:14.042Z,91.50
2018-02-01T02:37:44.682Z,91.20
2018-02-01T02:40:15.298Z,90.80
2018-02-01T02:42:45.249Z,90.80
2018-02-01T02:45:14.958Z,90.90
2018-02-01T02:47:45.758Z,91.10
2018-02-01T02:50:16.532Z,91.10
2018-02-01T02:52:46.375Z,91.00
2018-02-01T02:55:17.284Z,90.90
2018-02-01T02:57:48.220Z,90.90
2018-02-01T03:00:18.843Z,91.20
2018-02-01T03:02:48.549Z,91.10
2018-02-01T03:05:18.965Z,91.20
2018-02-01T03:07:49.616Z,91.10
2018-02-01T03:10:24.124Z,90.60
2018-02-01T03:12:53.972Z,90.50
2018-02-01T03:15:23.991Z,90.90
2018-02-01T03:17:53.824Z,91.10
2018-02-01T03:20:23.669Z,91.10
2018-02-01T03:22:53.342Z,91.20
2018-02-01T03:25:23.453Z,91.20
2018-02-01T03:27:53.734Z,91.20
2018-02-01T03:30:23.639Z,91.20
2018-02-01T03:32:53.338Z,91.30
2018-02-01T03:35:23.160Z,91.50
2018-02-01T03:37:52.834Z,91.40
2018-02-01T03:40:22.623Z,91.30
2018-02-01T03:42:53.224Z,91.30
2018-02-01T03:45:23.378Z,91.30
2018-02-01T03:47:53.814Z,91.20
2018-02-01T03:50:23.585Z,91.20
2018-02-01T03:52:53.208Z,91.40
2018-02-01T03:55:23.813Z,91.40
2018-02-01T03:57:53.749Z,91.40
2018-02-01T04:00:23.563Z,91.30
2018-02-01T04:02:54.565Z,90.90
2018-02-01T04:05:24.267Z,90.90
2018-02-01T04:07:55.478Z,91.10
2018-02-01T04:10:25.945Z,91.40
2018-02-01T04:12:55.963Z,91.40
2018-02-01T04:15:25.620Z,91.10
2018-02-01T04:17:55.432Z,91.20
2018-02-01T04:20:25.130Z,91.20
2018-02-01T04:22:59.841Z,91.20
2018-02-01T04:25:29.521Z,91.10
2018-02-01T04:28:00.492Z,90.90
2018-02-01T04:30:30.369Z,90.60
2018-02-01T04:33:00.956Z,90.90
2018-02-01T04:35:30.797Z,90.60
2018-02-01T04:38:01.238Z,90.60
2018-02-01T04:40:32.710Z,90.90
2018-02-01T04:43:02.394Z,90.90
2018-02-01T04:45:33.409Z,90.80
2018-02-01T04:48:03.822Z,90.30
2018-02-01T04:50:33.978Z,90.30
2018-02-01T04:53:05.403Z,90.80
2018-02-01T04:55:35.137Z,90.80
2018-02-01T04:58:05.921Z,90.80
2018-02-01T05:00:35.574Z,90.80
2018-02-01T05:03:06.235Z,90.50
2018-02-01T05:05:35.933Z,90.50
2018-02-01T05:08:06.456Z,90.80
2018-02-01T05:10:37.074Z,90.50
2018-02-01T05:13:06.613Z,90.50
2018-02-01T05:15:37.160Z,90.80
2018-02-01T05:18:06.799Z,90.80
2018-02-01T05:20:36.621Z,90.70
2018-02-01T05:23:07.033Z,90.80
2018-02-01T05:25:36.880Z,90.60
2018-02-01T05:28:06.816Z,90.80
2018-02-01T05:30:36.650Z,90.70
2018-02-01T05:33:06.483Z,90.70
2018-02-01T05:35:36.300Z,90.80
2018-02-01T05:38:05.885Z,90.90
2018-02-01T05:40:35.941Z,90.40
2018-02-01T05:43:06.295Z,90.40
2018-02-01T05:45:36.218Z,90.60
2018-02-01T05:48:07.229Z,89.30
2018-02-01T05:50:37.088Z,89.30
2018-02-01T05:53:06.832Z,88.90
2018-02-01T05:55:37.603Z,88.90
2018-02-01T05:58:07.447Z,89.30
2018-02-01T06:00:37.967Z,88.90
2018-02-01T06:03:08.593Z,87.70
2018-02-01T06:05:39.220Z,87.60
2018-02-01T06:08:10.046Z,87.00
2018-02-01T06:10:41.381Z,88.30
2018-02-01T06:13:11.268Z,88.30
2018-02-01T06:15:42.635Z,89.00
2018-02-01T06:18:12.539Z,87.90
2018-02-01T06:20:42.319Z,88.20
2018-02-01T06:23:12.974Z,88.30
2018-02-01T06:25:42.621Z,88.30
2018-02-01T06:28:13.488Z,88.60
2018-02-01T06:30:43.376Z,88.10
2018-02-01T06:33:14.194Z,87.70
2018-02-01T06:35:43.951Z,87.90
2018-02-01T06:38:14.398Z,87.60
2018-02-01T06:40:44.950Z,87.40
2018-02-01T06:43:14.566Z,87.40
2018-02-01T06:45:45.345Z,87.40
2018-02-01T06:48:14.382Z,87.70
2018-02-01T06:50:49.677Z,88.80
2018-02-01T06:53:19.678Z,88.60
2018-02-01T06:55:50.197Z,88.30
2018-02-01T06:58:19.792Z,87.60
2018-02-01T07:00:52.186Z,88.10
2018-02-01T07:03:21.963Z,88.40
2018-02-01T07:05:51.752Z,88.60
2018-02-01T07:08:22.089Z,88.30
2018-02-01T07:10:52.621Z,88.30
2018-02-01T07:13:22.062Z,88.30
2018-02-01T07:15:51.485Z,88.30
2018-02-01T07:18:20.375Z,88.30
2018-02-01T07:20:49.711Z,88.20
2018-02-01T07:23:20.203Z,88.20
2018-02-01T07:25:49.962Z,88.10
2018-02-01T07:28:20.345Z,88.10
2018-02-01T07:30:49.965Z,88.10
2018-02-01T07:33:18.807Z,88.80
2018-02-01T07:35:47.520Z,88.60
2018-02-01T07:38:16.625Z,89.00
2018-02-01T07:40:45.717Z,88.70
2018-02-01T07:43:14.442Z,90.00
2018-02-01T07:45:43.552Z,90.10
2018-02-01T07:48:12.444Z,90.00
2018-02-01T07:50:41.564Z,90.20
2018-02-01T07:53:10.156Z,90.30
2018-02-01T07:55:38.717Z,90.10
2018-02-01T07:58:07.821Z,89.90
2018-02-01T08:00:36.527Z,90.60
2018-02-01T08:03:06.280Z,90.60
2018-02-01T08:05:36.546Z,90.60
2018-02-01T08:08:05.114Z,90.30
2018-02-01T08:10:34.986Z,89.70
2018-02-01T08:13:04.903Z,89.90
2018-02-01T08:15:33.445Z,89.80
2018-02-01T08:18:03.293Z,90.20
2018-02-01T08:20:32.018Z,90.50
2018-02-01T08:23:00.970Z,90.80
2018-02-01T08:25:30.710Z,90.70
2018-02-01T08:28:00.235Z,90.70
2018-02-01T08:30:30.183Z,90.20
2018-02-01T08:32:59.503Z,90.20
2018-02-01T08:35:28.292Z,90.00
2018-02-01T08:37:56.909Z,90.20
2018-02-01T08:40:25.457Z,90.00
2018-02-01T08:42:54.256Z,90.10
2018-02-01T08:45:22.997Z,90.20
2018-02-01T08:47:53.222Z,90.40
2018-02-01T08:50:21.445Z,90.40
2018-02-01T08:52:49.504Z,90.30
2018-02-01T08:55:22.419Z,90.20
2018-02-01T08:57:52.354Z,89.50
2018-02-01T09:00:20.891Z,89.60
2018-02-01T09:02:50.263Z,88.90
2018-02-01T09:05:18.654Z,89.50
2018-02-01T09:07:47.016Z,89.70
2018-02-01T09:10:15.189Z,89.70
2018-02-01T09:12:44.245Z,89.00
2018-02-01T09:15:15.221Z,88.90
2018-02-01T09:17:44.580Z,88.90
2018-02-01T09:20:13.577Z,88.80
2018-02-01T09:22:42.172Z,89.20
2018-02-01T09:25:11.449Z,88.50
2018-02-01T09:27:39.554Z,89.40
2018-02-01T09:30:08.658Z,88.60
2018-02-01T09:32:37.203Z,88.60
2018-02-01T09:35:06.655Z,87.60
2018-02-01T09:37:35.546Z,88.30
2018-02-01T09:40:04.130Z,88.80
2018-02-01T09:42:33.505Z,89.10
2018-02-01T09:45:02.696Z,89.10
2018-02-01T09:47:31.774Z,90.00
2018-02-01T09:50:00.318Z,90.30
2018-02-01T09:52:29.776Z,90.70
2018-02-01T09:54:58.399Z,90.70
2018-02-01T09:57:26.987Z,90.20
2018-02-01T09:59:55.242Z,90.40
2018-02-01T10:02:23.957Z,90.10
2018-02-01T10:04:53.523Z,90.50
2018-02-01T10:07:24.994Z,90.20
2018-02-01T10:09:54.829Z,90.50
2018-02-01T10:12:24.543Z,90.70
2018-02-01T10:14:55.587Z,91.10
2018-02-01T10:17:24.365Z,91.10
2018-02-01T10:19:55.869Z,90.30
2018-02-01T10:22:24.842Z,90.30
2018-02-01T10:24:53.986Z,90.40
2018-02-01T10:27:22.858Z,90.10
2018-02-01T10:29:51.365Z,89.00
2018-02-01T10:32:19.827Z,89.10
2018-02-01T10:34:48.603Z,89.00
2018-02-01T10:37:17.138Z,89.20
2018-02-01T10:39:45.887Z,89.10
2018-02-01T10:42:14.887Z,88.90
2018-02-01T10:44:43.523Z,88.60
2018-02-01T10:47:13.029Z,87.80
2018-02-01T10:49:42.561Z,87.60
2018-02-01T10:52:10.764Z,87.10
2018-02-01T10:54:40.815Z,87.60
2018-02-01T10:57:10.512Z,87.60
2018-02-01T10:59:39.575Z,87.50
2018-02-01T11:02:09.868Z,86.50
2018-02-01T11:04:38.704Z,86.70
2018-02-01T11:07:07.751Z,86.50
2018-02-01T11:09:35.773Z,86.50
2018-02-01T11:12:03.984Z,86.30
2018-02-01T11:14:32.037Z,85.80
2018-02-01T11:17:01.033Z,87.10
2018-02-01T11:19:29.718Z,86.50
2018-02-01T11:21:58.104Z,85.30
2018-02-01T11:24:26.950Z,85.00
2018-02-01T11:26:55.781Z,84.20
2018-02-01T11:29:24.304Z,83.60
2018-02-01T11:31:53.398Z,82.90
2018-02-01T11:34:30.812Z,83.60
2018-02-01T11:37:01.248Z,83.40
2018-02-01T11:39:30.032Z,81.70
2018-02-01T11:41:59.136Z,81.60
2018-02-01T11:44:27.856Z,82.70
2018-02-01T11:46:56.934Z,81.50
2018-02-01T11:49:26.292Z,80.40
2018-02-01T11:51:54.994Z,81.50
2018-02-01T11:54:26.876Z,81.30
2018-02-01T11:56:56.331Z,80.50
2018-02-01T11:59:25.375Z,79.50
2018-02-01T12:01:53.254Z,79.50
2018-02-01T12:04:21.571Z,80.40
2018-02-01T12:06:50.362Z,78.20
2018-02-01T12:09:18.582Z,78.20
2018-02-01T12:11:47.951Z,79.30
2018-02-01T12:14:17.165Z,75.00
2018-02-01T12:16:45.830Z,75.00
2018-02-01T12:19:14.243Z,75.00
2018-02-01T12:21:42.272Z,74.00
2018-02-01T12:24:10.663Z,73.50
2018-02-01T12:26:39.423Z,74.80
2018-02-01T12:29:08.145Z,75.00
2018-02-01T12:31:36.570Z,74.90
2018-02-01T12:34:05.804Z,75.90
2018-02-01T12:36:35.157Z,74.00
2018-02-01T12:39:03.368Z,73.40
2018-02-01T12:41:31.571Z,74.00
2018-02-01T12:44:00.795Z,75.20
2018-02-01T12:46:30.654Z,75.10
2018-02-01T12:48:59.298Z,73.60
2018-02-01T12:51:27.797Z,73.80
2018-02-01T12:53:56.572Z,74.20
2018-02-01T12:56:25.994Z,73.70
2018-02-01T12:58:54.436Z,74.00
2018-02-01T13:01:24.005Z,74.40
2018-02-01T13:03:51.951Z,74.40
2018-02-01T13:06:22.663Z,75.60
2018-02-01T13:08:51.482Z,75.60
2018-02-01T13:11:19.732Z,74.40
2018-02-01T13:13:48.316Z,76.60
2018-02-01T13:16:16.455Z,73.70
2018-02-01T13:18:45.639Z,74.70
2018-02-01T13:21:14.359Z,74.70
2018-02-01T13:23:42.636Z,74.20
2018-02-01T13:26:11.570Z,74.90
2018-02-01T13:28:40.233Z,74.20
2018-02-01T13:31:08.601Z,74.30
2018-02-01T13:33:37.163Z,74.30
2018-02-01T13:36:06.156Z,75.40
2018-02-01T13:38:34.876Z,73.30
2018-02-01T13:41:03.995Z,74.10
2018-02-01T13:43:32.908Z,75.40
2018-02-01T13:46:02.344Z,74.20
2018-02-01T13:48:30.555Z,74.80
2018-02-01T13:50:59.479Z,75.10
2018-02-01T13:53:28.395Z,73.40
2018-02-01T13:55:56.840Z,74.10
2018-02-01T13:58:25.340Z,73.50
2018-02-01T14:00:54.299Z,74.60
2018-02-01T14:03:23.334Z,74.40
2018-02-01T14:05:52.875Z,74.40
2018-02-01T14:08:21.728Z,75.60
2018-02-01T14:10:50.048Z,75.50
2018-02-01T14:13:19.518Z,76.40
2018-02-01T14:15:48.781Z,76.40
2018-02-01T14:18:18.633Z,75.60
2018-02-01T14:20:47.845Z,75.70
2018-02-01T14:23:17.421Z,75.60
2018-02-01T14:25:46.605Z,75.60
2018-02-01T14:28:15.809Z,76.30
2018-02-01T14:30:44.398Z,75.80
2018-02-01T14:33:13.796Z,75.80
2018-02-01T14:35:42.551Z,75.30
2018-02-01T14:38:11.616Z,75.20
2018-02-01T14:40:40.819Z,75.50
2018-02-01T14:43:09.958Z,75.40
2018-02-01T14:45:38.126Z,75.40
2018-02-01T14:48:07.101Z,75.60
2018-02-01T14:50:36.490Z,74.70
2018-02-01T14:53:05.502Z,74.70
2018-02-01T14:55:34.108Z,75.20
2018-02-01T14:58:03.253Z,75.20
2018-02-01T15:00:32.378Z,74.20
2018-02-01T15:03:02.201Z,73.60
2018-02-01T15:05:30.735Z,73.60
2018-02-01T15:07:59.068Z,71.50
2018-02-01T15:10:27.364Z,73.00
2018-02-01T15:12:56.712Z,73.00
2018-02-01T15:15:25.906Z,73.70
2018-02-01T15:17:54.787Z,72.90
2018-02-01T15:20:24.092Z,72.60
2018-02-01T15:22:53.465Z,72.90
2018-02-01T15:25:21.832Z,74.20
2018-02-01T15:27:51.011Z,73.90
2018-02-01T15:30:20.246Z,73.40
2018-02-01T15:32:48.411Z,73.40
2018-02-01T15:35:22.258Z,73.30
2018-02-01T15:37:51.222Z,73.90
2018-02-01T15:40:19.843Z,72.00
2018-02-01T15:42:49.228Z,71.40
2018-02-01T15:45:18.092Z,72.00
2018-02-01T15:47:47.017Z,72.90
2018-02-01T15:50:15.920Z,73.30
2018-02-01T15:52:44.956Z,72.30
2018-02-01T15:55:13.052Z,72.30
2018-02-01T15:57:42.155Z,72.20
2018-02-01T16:00:10.198Z,71.50
2018-02-01T16:02:39.350Z,72.30
2018-02-01T16:05:08.795Z,71.80
2018-02-01T16:07:37.324Z,72.10
2018-02-01T16:10:06.527Z,71.00
2018-02-01T16:12:35.584Z,71.40
2018-02-01T16:15:05.397Z,74.90
2018-02-01T16:17:33.475Z,77.70
2018-02-01T16:20:02.921Z,79.40
2018-02-01T16:22:31.781Z,80.20
2018-02-01T16:25:01.048Z,80.80
2018-02-01T16:27:30.985Z,81.10
2018-02-01T16:30:00.653Z,81.10
2018-02-01T16:32:28.275Z,82.40
2018-02-01T16:34:55.952Z,82.90
2018-02-01T16:37:23.630Z,83.10
2018-02-01T16:39:51.244Z,82.60
2018-02-01T16:42:18.837Z,82.70
2018-02-01T16:44:46.506Z,83.50
2018-02-01T16:47:14.166Z,83.40
2018-02-01T16:49:41.828Z,83.90
2018-02-01T16:52:09.410Z,84.70
2018-02-01T16:54:37.105Z,84.20
2018-02-01T16:57:04.717Z,84.30
2018-02-01T16:59:32.273Z,84.30
2018-02-01T17:01:59.874Z,83.80
2018-02-01T17:04:28.249Z,83.60
2018-02-01T17:06:56.774Z,83.70
2018-02-01T17:09:24.330Z,83.70
2018-02-01T17:11:51.951Z,84.00
2018-02-01T17:14:19.571Z,84.00
2018-02-01T17:16:47.204Z,83.90
2018-02-01T17:19:14.813Z,84.50
2018-02-01T17:21:42.389Z,84.50
2018-02-01T17:24:10.016Z,85.00
2018-02-01T17:26:37.705Z,85.00
2018-02-01T17:29:05.262Z,83.10
2018-02-01T17:31:32.853Z,81.40
2018-02-01T17:34:01.228Z,78.30
2018-02-01T17:36:28.800Z,78.30
2018-02-01T17:38:57.189Z,76.50
2018-02-01T17:41:25.550Z,75.70
2018-02-01T17:43:53.997Z,75.30
2018-02-01T17:46:25.427Z,75.30
2018-02-01T17:48:53.004Z,74.80
2018-02-01T17:51:20.672Z,74.00
2018-02-01T17:53:48.347Z,73.10
2018-02-01T17:56:15.927Z,73.10
2018-02-01T17:58:43.577Z,72.30
2018-02-01T18:01:11.159Z,72.50
2018-02-01T18:03:39.569Z,71.80
2018-02-01T18:06:07.176Z,71.70
2018-02-01T18:08:34.743Z,71.60
2018-02-01T18:11:02.302Z,71.60
2018-02-01T18:13:29.912Z,71.00
2018-02-01T18:15:57.465Z,70.50
2018-02-01T18:18:25.103Z,70.20
2018-02-01T18:20:53.516Z,70.30
2018-02-01T18:23:21.127Z,70.20
2018-02-01T18:25:48.667Z,69.90
2018-02-01T18:28:16.249Z,70.30
2018-02-01T18:30:43.844Z,70.40
2018-02-01T18:33:12.184Z,70.90
2018-02-01T18:35:39.884Z,70.90
2018-02-01T18:38:08.224Z,71.20
2018-02-01T18:40:35.790Z,71.20
2018-02-01T18:43:03.391Z,71.00
2018-02-01T18:45:30.959Z,71.00
2018-02-01T18:47:58.616Z,71.30
2018-02-01T18:50:26.908Z,71.70
2018-02-01T18:52:55.293Z,72.50
2018-02-01T18:55:22.843Z,72.00
2018-02-01T18:57:50.730Z,72.30
2018-02-01T19:00:18.326Z,72.70
2018-02-01T19:02:45.925Z,72.30
2018-02-01T19:05:13.506Z,71.70
2018-02-01T19:07:41.202Z,72.00
2018-02-01T19:10:08.753Z,72.00
2018-02-01T19:12:36.346Z,72.40
2018-02-01T19:15:04.726Z,73.20
2018-02-01T19:17:32.292Z,73.20
2018-02-01T19:20:00.673Z,73.00
2018-02-01T19:22:29.020Z,73.20
2018-02-01T19:24:56.624Z,73.10
2018-02-01T19:27:24.973Z,73.30
2018-02-01T19:29:52.601Z,73.30
2018-02-01T19:32:20.153Z,73.90
2018-02-01T19:34:47.731Z,74.80
2018-02-01T19:37:15.285Z,76.40
2018-02-01T19:39:42.908Z,78.10
2018-02-01T19:42:10.552Z,80.10
2018-02-01T19:44:38.140Z,82.40
2018-02-01T19:47:05.739Z,84.30
2018-02-01T19:49:33.309Z,86.10
2018-02-01T19:52:00.942Z,86.50
2018-02-01T19:54:28.485Z,87.30
2018-02-01T19:56:56.120Z,88.50
2018-02-01T19:59:23.700Z,87.90
2018-02-01T20:01:52.012Z,90.00
2018-02-01T20:04:19.639Z,90.00
2018-02-01T20:06:47.953Z,90.30
2018-02-01T20:09:15.587Z,90.30
2018-02-01T20:11:43.201Z,90.40
2018-02-01T20:14:10.878Z,90.60
2018-02-01T20:16:38.477Z,90.80
2018-02-01T20:19:06.024Z,90.40
2018-02-01T20:21:34.384Z,90.20
2018-02-01T20:24:01.969Z,90.20
2018-02-01T20:26:30.332Z,90.00
2018-02-01T20:28:58.693Z,90.30
2018-02-01T20:31:26.296Z,90.30
2018-02-01T20:33:53.888Z,90.50
2018-02-01T20:36:21.556Z,90.60
2018-02-01T20:38:49.134Z,90.50
2018-02-01T20:41:16.861Z,90.30
2018-02-01T20:43:45.221Z,90.40
2018-02-01T20:46:13.532Z,90.40
2018-02-01T20:48:41.091Z,90.40
2018-02-01T20:51:08.688Z,90.50
2018-02-01T20:53:36.256Z,90.50
2018-02-01T20:56:03.841Z,90.60
2018-02-01T20:58:31.436Z,90.50
2018-02-01T21:00:58.986Z,90.20
2018-02-01T21:03:29.819Z,90.60
2018-02-01T21:05:59.293Z,90.70
2018-02-01T21:08:29.728Z,90.40
2018-02-01T21:10:59.148Z,90.40
2018-02-01T21:13:28.554Z,90.30
2018-02-01T21:15:58.007Z,90.40
2018-02-01T21:18:27.497Z,90.20
2018-02-01T21:20:55.075Z,90.00
2018-02-01T21:23:22.629Z,90.20
2018-02-01T21:25:50.220Z,90.40
2018-02-01T21:28:18.575Z,90.30
2018-02-01T21:30:46.190Z,90.30
2018-02-01T21:33:13.744Z,90.00
2018-02-01T21:35:41.357Z,90.10
2018-02-01T21:38:08.989Z,90.20
2018-02-01T21:40:36.565Z,89.50
2018-02-01T21:43:04.155Z,89.60
2018-02-01T21:45:31.756Z,89.40
2018-02-01T21:47:59.316Z,89.00
2018-02-01T21:50:27.020Z,89.00
2018-02-01T21:52:54.593Z,88.90
2018-02-01T21:55:22.166Z,90.00
2018-02-01T21:57:49.766Z,89.70
2018-02-01T22:00:17.324Z,89.80
2018-02-01T22:02:44.947Z,90.00
2018-02-01T22:05:12.496Z,90.10
2018-02-01T22:07:40.093Z,90.20
2018-02-01T22:10:08.469Z,90.10
2018-02-01T22:12:36.872Z,90.10
2018-02-01T22:15:04.442Z,90.10
2018-02-01T22:17:32.055Z,90.10
2018-02-01T22:19:59.605Z,90.10
2018-02-01T22:22:27.278Z,89.90
2018-02-01T22:24:54.844Z,89.70
2018-02-01T22:27:23.221Z,89.90
2018-02-01T22:29:50.796Z,89.80
2018-02-01T22:32:19.155Z,90.00
2018-02-01T22:34:46.733Z,90.00
2018-02-01T22:37:15.093Z,90.10
2018-02-01T22:39:42.697Z,90.10
2018-02-01T22:42:10.316Z,90.30
2018-02-01T22:44:37.887Z,90.00
2018-02-01T22:47:05.504Z,90.00
2018-02-01T22:49:33.101Z,89.80
2018-02-01T22:52:00.652Z,90.00
2018-02-01T22:54:28.273Z,90.00
2018-02-01T22:56:55.832Z,90.00
2018-02-01T22:59:23.426Z,89.70
2018-02-01T23:01:50.981Z,90.00
2018-02-01T23:04:18.698Z,90.10
2018-02-01T23:06:47.054Z,90.00
2018-02-01T23:09:14.673Z,90.00
2018-02-01T23:11:43.073Z,89.90
2018-02-01T23:14:10.619Z,89.90
2018-02-01T23:16:38.177Z,89.20
2018-02-01T23:19:05.768Z,89.30
2018-02-01T23:21:33.366Z,89.40
2018-02-01T23:24:00.956Z,89.30
2018-02-01T23:26:28.568Z,89.00
2018-02-01T23:28:56.913Z,89.60
2018-02-01T23:31:24.523Z,90.00
2018-02-01T23:33:52.840Z,89.50
2018-02-01T23:36:20.416Z,89.40
2018-02-01T23:38:48.039Z,89.60
2018-02-01T23:41:15.620Z,89.70
2018-02-01T23:43:43.212Z,89.40
2018-02-01T23:46:11.577Z,90.30
2018-02-01T23:48:39.176Z,90.00
2018-02-01T23:51:06.719Z,90.10
2018-02-01T23:53:34.312Z,90.30
2018-02-01T23:56:01.901Z,89.80
2018-02-01T23:58:29.521Z,89.90
